sensor_id;sensor_type;location;lat;lon;timestamp;P1;durP1;ratioP1;P2;durP2;ratioP2
21569;SDS011;57598;50.888;4.746;2023-07-31T00:00:19;54.17;;;44.40;;
21569;SDS011;57598;50.888;4.746;2023-07-31T00:02:47;62.35;;;45.20;;
21569;SDS011;57598;50.888;4.746;2023-07-31T00:05:14;51.30;;;43.42;;
21569;SDS011;57598;50.888;4.746;2023-07-31T00:07:41;59.85;;;46.85;;
21569;SDS011;57598;50.888;4.746;2023-07-31T00:10:08;52.17;;;41.42;;
21569;SDS011;57598;50.888;4.746;2023-07-31T00:12:37;51.97;;;42.90;;
21569;SDS011;57598;50.888;4.746;2023-07-31T00:15:05;49.38;;;41.38;;
21569;SDS011;57598;50.888;4.746;2023-07-31T00:17:33;68.93;;;45.13;;
21569;SDS011;57598;50.888;4.746;2023-07-31T00:20:01;49.92;;;41.97;;
21569;SDS011;57598;50.888;4.746;2023-07-31T00:22:28;50.80;;;42.22;;
21569;SDS011;57598;50.888;4.746;2023-07-31T00:24:55;52.83;;;43.35;;
21569;SDS011;57598;50.888;4.746;2023-07-31T00:27:23;49.85;;;40.80;;
21569;SDS011;57598;50.888;4.746;2023-07-31T00:29:50;53.00;;;42.17;;
21569;SDS011;57598;50.888;4.746;2023-07-31T00:32:18;59.30;;;46.85;;
21569;SDS011;57598;50.888;4.746;2023-07-31T00:34:46;58.25;;;42.45;;
21569;SDS011;57598;50.888;4.746;2023-07-31T00:37:14;49.22;;;40.95;;
21569;SDS011;57598;50.888;4.746;2023-07-31T00:39:41;51.13;;;42.65;;
21569;SDS011;57598;50.888;4.746;2023-07-31T00:42:08;50.53;;;42.35;;
21569;SDS011;57598;50.888;4.746;2023-07-31T00:44:36;51.35;;;44.20;;
21569;SDS011;57598;50.888;4.746;2023-07-31T00:47:03;51.88;;;41.42;;
21569;SDS011;57598;50.888;4.746;2023-07-31T00:49:30;49.60;;;43.38;;
21569;SDS011;57598;50.888;4.746;2023-07-31T00:51:59;58.05;;;46.80;;
21569;SDS011;57598;50.888;4.746;2023-07-31T00:54:27;60.83;;;45.13;;
21569;SDS011;57598;50.888;4.746;2023-07-31T00:56:54;54.15;;;45.25;;
21569;SDS011;57598;50.888;4.746;2023-07-31T00:59:22;52.88;;;44.22;;
21569;SDS011;57598;50.888;4.746;2023-07-31T05:22:02;53.28;;;48.00;;
21569;SDS011;57598;50.888;4.746;2023-07-31T05:24:29;60.80;;;55.03;;
21569;SDS011;57598;50.888;4.746;2023-07-31T05:26:57;67.60;;;61.13;;
21569;SDS011;57598;50.888;4.746;2023-07-31T05:29:24;70.25;;;63.58;;
21569;SDS011;57598;50.888;4.746;2023-07-31T05:31:51;89.07;;;81.38;;
21569;SDS011;57598;50.888;4.746;2023-07-31T05:34:18;135.07;;;125.05;;
21569;SDS011;57598;50.888;4.746;2023-07-31T05:36:46;125.95;;;117.22;;
21569;SDS011;57598;50.888;4.746;2023-07-31T05:39:14;120.85;;;112.18;;
21569;SDS011;57598;50.888;4.746;2023-07-31T05:41:43;125.80;;;116.80;;
21569;SDS011;57598;50.888;4.746;2023-07-31T05:44:10;117.97;;;109.28;;
21569;SDS011;57598;50.888;4.746;2023-07-31T05:46:38;119.18;;;109.30;;
21569;SDS011;57598;50.888;4.746;2023-07-31T05:49:05;117.47;;;109.15;;
21569;SDS011;57598;50.888;4.746;2023-07-31T05:51:32;112.22;;;103.72;;
21569;SDS011;57598;50.888;4.746;2023-07-31T05:53:59;123.18;;;114.47;;
21569;SDS011;57598;50.888;4.746;2023-07-31T05:56:28;108.60;;;100.68;;
21569;SDS011;57598;50.888;4.746;2023-07-31T05:58:56;93.80;;;85.07;;
21569;SDS011;57598;50.888;4.746;2023-07-31T06:01:23;109.38;;;101.03;;
21569;SDS011;57598;50.888;4.746;2023-07-31T06:03:51;112.75;;;104.18;;
21569;SDS011;57598;50.888;4.746;2023-07-31T06:06:18;106.68;;;98.88;;
21569;SDS011;57598;50.888;4.746;2023-07-31T06:08:45;102.07;;;94.47;;
21569;SDS011;57598;50.888;4.746;2023-07-31T06:11:12;97.40;;;89.38;;
21569;SDS011;57598;50.888;4.746;2023-07-31T06:13:41;81.18;;;74.57;;
21569;SDS011;57598;50.888;4.746;2023-07-31T06:16:09;71.65;;;65.75;;
21569;SDS011;57598;50.888;4.746;2023-07-31T06:18:37;71.85;;;65.85;;
21569;SDS011;57598;50.888;4.746;2023-07-31T06:21:04;66.97;;;61.03;;
21569;SDS011;57598;50.888;4.746;2023-07-31T06:23:31;64.53;;;58.78;;
21569;SDS011;57598;50.888;4.746;2023-07-31T06:25:58;59.33;;;53.47;;
21569;SDS011;57598;50.888;4.746;2023-07-31T06:28:27;54.42;;;49.65;;
21569;SDS011;57598;50.888;4.746;2023-07-31T06:30:56;54.08;;;49.28;;
21569;SDS011;57598;50.888;4.746;2023-07-31T06:33:23;54.75;;;49.28;;
21569;SDS011;57598;50.888;4.746;2023-07-31T06:35:51;52.30;;;47.50;;
21569;SDS011;57598;50.888;4.746;2023-07-31T06:38:18;52.63;;;47.92;;
21569;SDS011;57598;50.888;4.746;2023-07-31T06:40:46;50.03;;;45.63;;
21569;SDS011;57598;50.888;4.746;2023-07-31T06:43:14;50.25;;;45.22;;
21569;SDS011;57598;50.888;4.746;2023-07-31T06:45:41;49.95;;;44.58;;
21569;SDS011;57598;50.888;4.746;2023-07-31T06:48:10;49.90;;;44.95;;
21569;SDS011;57598;50.888;4.746;2023-07-31T06:50:37;60.08;;;43.90;;
21569;SDS011;57598;50.888;4.746;2023-07-31T06:53:04;49.00;;;44.20;;
21569;SDS011;57598;50.888;4.746;2023-07-31T06:55:32;49.63;;;44.92;;
21569;SDS011;57598;50.888;4.746;2023-07-31T06:57:59;46.53;;;42.25;;
21569;SDS011;57598;50.888;4.746;2023-07-31T07:00:26;46.22;;;41.72;;
21569;SDS011;57598;50.888;4.746;2023-07-31T07:02:54;47.40;;;42.83;;
21569;SDS011;57598;50.888;4.746;2023-07-31T07:05:22;53.10;;;48.17;;
21569;SDS011;57598;50.888;4.746;2023-07-31T07:07:50;51.78;;;47.08;;
21569;SDS011;57598;50.888;4.746;2023-07-31T07:10:17;52.03;;;47.13;;
21569;SDS011;57598;50.888;4.746;2023-07-31T07:12:45;49.50;;;44.50;;
21569;SDS011;57598;50.888;4.746;2023-07-31T07:15:12;52.95;;;47.85;;
21569;SDS011;57598;50.888;4.746;2023-07-31T07:17:40;51.00;;;46.08;;
21569;SDS011;57598;50.888;4.746;2023-07-31T07:20:07;49.60;;;44.90;;
21569;SDS011;57598;50.888;4.746;2023-07-31T07:22:36;51.85;;;46.80;;
21569;SDS011;57598;50.888;4.746;2023-07-31T07:25:04;52.88;;;47.60;;
21569;SDS011;57598;50.888;4.746;2023-07-31T07:27:32;51.15;;;46.25;;
21569;SDS011;57598;50.888;4.746;2023-07-31T07:29:59;51.33;;;46.25;;
21569;SDS011;57598;50.888;4.746;2023-07-31T07:32:26;53.65;;;48.30;;
21569;SDS011;57598;50.888;4.746;2023-07-31T07:34:54;54.40;;;48.92;;
21569;SDS011;57598;50.888;4.746;2023-07-31T07:37:22;48.05;;;43.25;;
21569;SDS011;57598;50.888;4.746;2023-07-31T07:39:50;46.80;;;42.00;;
21569;SDS011;57598;50.888;4.746;2023-07-31T07:42:18;47.55;;;42.80;;
21569;SDS011;57598;50.888;4.746;2023-07-31T07:44:45;49.17;;;42.58;;
21569;SDS011;57598;50.888;4.746;2023-07-31T07:47:12;46.47;;;41.50;;
21569;SDS011;57598;50.888;4.746;2023-07-31T07:49:39;44.75;;;40.08;;
21569;SDS011;57598;50.888;4.746;2023-07-31T07:52:07;44.83;;;40.13;;
21569;SDS011;57598;50.888;4.746;2023-07-31T07:54:34;43.80;;;39.33;;
21569;SDS011;57598;50.888;4.746;2023-07-31T07:57:03;42.58;;;38.38;;
21569;SDS011;57598;50.888;4.746;2023-07-31T07:59:30;45.38;;;40.83;;
21569;SDS011;57598;50.888;4.746;2023-07-31T08:01:57;44.40;;;39.90;;
21569;SDS011;57598;50.888;4.746;2023-07-31T08:04:25;45.30;;;40.50;;
21569;SDS011;57598;50.888;4.746;2023-07-31T08:06:52;44.60;;;39.92;;
21569;SDS011;57598;50.888;4.746;2023-07-31T08:09:19;44.70;;;40.15;;
21569;SDS011;57598;50.888;4.746;2023-07-31T08:11:46;44.05;;;39.55;;
21569;SDS011;57598;50.888;4.746;2023-07-31T08:14:15;44.63;;;40.03;;
21569;SDS011;57598;50.888;4.746;2023-07-31T08:16:42;44.20;;;39.30;;
21569;SDS011;57598;50.888;4.746;2023-07-31T08:19:09;46.67;;;42.00;;
21569;SDS011;57598;50.888;4.746;2023-07-31T08:21:37;44.58;;;40.15;;
21569;SDS011;57598;50.888;4.746;2023-07-31T08:24:04;45.28;;;40.50;;
21569;SDS011;57598;50.888;4.746;2023-07-31T08:26:32;46.17;;;41.63;;
21569;SDS011;57598;50.888;4.746;2023-07-31T08:29:00;46.00;;;41.60;;
21569;SDS011;57598;50.888;4.746;2023-07-31T08:31:28;46.03;;;41.63;;
21569;SDS011;57598;50.888;4.746;2023-07-31T08:33:56;44.33;;;40.05;;
21569;SDS011;57598;50.888;4.746;2023-07-31T08:36:23;47.13;;;42.50;;
21569;SDS011;57598;50.888;4.746;2023-07-31T08:38:50;44.00;;;39.80;;
21569;SDS011;57598;50.888;4.746;2023-07-31T08:41:18;45.90;;;41.65;;
21569;SDS011;57598;50.888;4.746;2023-07-31T08:43:45;45.40;;;41.30;;
21569;SDS011;57598;50.888;4.746;2023-07-31T08:46:13;46.55;;;42.22;;
21569;SDS011;57598;50.888;4.746;2023-07-31T08:48:42;45.53;;;41.03;;
21569;SDS011;57598;50.888;4.746;2023-07-31T08:51:10;42.60;;;38.70;;
21569;SDS011;57598;50.888;4.746;2023-07-31T08:53:37;46.20;;;41.65;;
21569;SDS011;57598;50.888;4.746;2023-07-31T08:56:05;47.45;;;42.95;;
21569;SDS011;57598;50.888;4.746;2023-07-31T08:58:32;41.55;;;37.75;;
21569;SDS011;57598;50.888;4.746;2023-07-31T09:01:01;42.13;;;38.33;;
21569;SDS011;57598;50.888;4.746;2023-07-31T09:03:31;46.00;;;41.80;;
21569;SDS011;57598;50.888;4.746;2023-07-31T09:06:01;42.53;;;38.63;;
21569;SDS011;57598;50.888;4.746;2023-07-31T09:08:30;42.63;;;38.72;;
21569;SDS011;57598;50.888;4.746;2023-07-31T09:10:59;45.72;;;41.22;;
21569;SDS011;57598;50.888;4.746;2023-07-31T09:13:27;43.50;;;39.40;;
21569;SDS011;57598;50.888;4.746;2023-07-31T09:15:54;44.00;;;39.95;;
21569;SDS011;57598;50.888;4.746;2023-07-31T09:18:22;42.92;;;38.97;;
21569;SDS011;57598;50.888;4.746;2023-07-31T09:21:00;47.05;;;42.47;;
21569;SDS011;57598;50.888;4.746;2023-07-31T09:23:29;43.22;;;39.42;;
21569;SDS011;57598;50.888;4.746;2023-07-31T09:26:06;45.90;;;41.70;;
21569;SDS011;57598;50.888;4.746;2023-07-31T09:28:33;43.67;;;39.78;;
21569;SDS011;57598;50.888;4.746;2023-07-31T09:31:01;46.40;;;42.20;;
21569;SDS011;57598;50.888;4.746;2023-07-31T09:33:28;46.55;;;42.28;;
21569;SDS011;57598;50.888;4.746;2023-07-31T09:35:56;45.03;;;40.92;;
21569;SDS011;57598;50.888;4.746;2023-07-31T09:38:25;45.72;;;41.63;;
21569;SDS011;57598;50.888;4.746;2023-07-31T09:40:54;45.30;;;41.03;;
21569;SDS011;57598;50.888;4.746;2023-07-31T09:43:22;46.83;;;42.63;;
21569;SDS011;57598;50.888;4.746;2023-07-31T09:45:54;44.65;;;40.75;;
21569;SDS011;57598;50.888;4.746;2023-07-31T09:48:22;47.47;;;43.38;;
21569;SDS011;57598;50.888;4.746;2023-07-31T09:50:51;47.03;;;42.80;;
21569;SDS011;57598;50.888;4.746;2023-07-31T09:53:18;48.60;;;44.45;;
21569;SDS011;57598;50.888;4.746;2023-07-31T09:55:46;47.72;;;43.67;;
21569;SDS011;57598;50.888;4.746;2023-07-31T09:58:14;45.22;;;41.42;;
21569;SDS011;57598;50.888;4.746;2023-07-31T10:00:42;43.28;;;39.65;;
21569;SDS011;57598;50.888;4.746;2023-07-31T10:03:09;46.40;;;42.42;;
21569;SDS011;57598;50.888;4.746;2023-07-31T10:05:38;46.58;;;42.67;;
21569;SDS011;57598;50.888;4.746;2023-07-31T10:08:05;48.28;;;43.97;;
21569;SDS011;57598;50.888;4.746;2023-07-31T10:10:33;49.30;;;45.20;;
21569;SDS011;57598;50.888;4.746;2023-07-31T10:13:02;51.70;;;47.20;;
21569;SDS011;57598;50.888;4.746;2023-07-31T10:15:33;50.83;;;46.40;;
21569;SDS011;57598;50.888;4.746;2023-07-31T10:18:01;52.33;;;47.92;;
21569;SDS011;57598;50.888;4.746;2023-07-31T10:20:28;52.05;;;47.85;;
21569;SDS011;57598;50.888;4.746;2023-07-31T10:22:56;54.05;;;49.72;;
21569;SDS011;57598;50.888;4.746;2023-07-31T10:25:24;56.00;;;51.00;;
21569;SDS011;57598;50.888;4.746;2023-07-31T10:27:53;56.28;;;51.50;;
21569;SDS011;57598;50.888;4.746;2023-07-31T10:30:22;56.15;;;51.53;;
21569;SDS011;57598;50.888;4.746;2023-07-31T10:32:51;54.55;;;50.03;;
21569;SDS011;57598;50.888;4.746;2023-07-31T10:35:20;57.00;;;52.20;;
21569;SDS011;57598;50.888;4.746;2023-07-31T10:37:47;54.67;;;49.85;;
21569;SDS011;57598;50.888;4.746;2023-07-31T10:40:16;55.13;;;50.53;;
21569;SDS011;57598;50.888;4.746;2023-07-31T10:42:45;57.33;;;52.13;;
21569;SDS011;57598;50.888;4.746;2023-07-31T10:45:13;57.22;;;52.47;;
21569;SDS011;57598;50.888;4.746;2023-07-31T10:47:42;59.30;;;54.40;;
21569;SDS011;57598;50.888;4.746;2023-07-31T10:50:16;56.63;;;52.03;;
21569;SDS011;57598;50.888;4.746;2023-07-31T10:52:44;58.65;;;53.88;;
21569;SDS011;57598;50.888;4.746;2023-07-31T10:55:23;59.95;;;54.58;;
21569;SDS011;57598;50.888;4.746;2023-07-31T10:57:49;56.70;;;52.00;;
21569;SDS011;57598;50.888;4.746;2023-07-31T11:00:20;57.13;;;52.30;;
21569;SDS011;57598;50.888;4.746;2023-07-31T11:02:56;56.13;;;51.75;;
21569;SDS011;57598;50.888;4.746;2023-07-31T11:08:11;55.67;;;51.28;;
21569;SDS011;57598;50.888;4.746;2023-07-31T11:10:38;56.60;;;52.30;;
21569;SDS011;57598;50.888;4.746;2023-07-31T11:13:06;56.53;;;51.83;;
21569;SDS011;57598;50.888;4.746;2023-07-31T11:15:33;52.30;;;48.05;;
21569;SDS011;57598;50.888;4.746;2023-07-31T11:18:00;55.50;;;51.15;;
21569;SDS011;57598;50.888;4.746;2023-07-31T11:20:30;56.60;;;51.85;;
21569;SDS011;57598;50.888;4.746;2023-07-31T11:22:58;56.40;;;51.65;;
21569;SDS011;57598;50.888;4.746;2023-07-31T11:25:28;56.83;;;52.22;;
21569;SDS011;57598;50.888;4.746;2023-07-31T11:27:55;55.72;;;51.22;;
21569;SDS011;57598;50.888;4.746;2023-07-31T11:30:22;57.45;;;52.83;;
21569;SDS011;57598;50.888;4.746;2023-07-31T11:32:50;59.22;;;54.08;;
21569;SDS011;57598;50.888;4.746;2023-07-31T11:35:17;56.47;;;51.92;;
21569;SDS011;57598;50.888;4.746;2023-07-31T11:37:45;57.03;;;52.10;;
21569;SDS011;57598;50.888;4.746;2023-07-31T11:40:12;56.05;;;51.40;;
21569;SDS011;57598;50.888;4.746;2023-07-31T11:42:41;54.33;;;49.92;;
21569;SDS011;57598;50.888;4.746;2023-07-31T11:45:08;56.17;;;51.65;;
21569;SDS011;57598;50.888;4.746;2023-07-31T11:47:36;57.72;;;52.85;;
21569;SDS011;57598;50.888;4.746;2023-07-31T11:50:04;58.20;;;53.00;;
21569;SDS011;57598;50.888;4.746;2023-07-31T11:52:33;55.33;;;50.50;;
21569;SDS011;57598;50.888;4.746;2023-07-31T11:55:00;53.22;;;49.13;;
21569;SDS011;57598;50.888;4.746;2023-07-31T11:57:28;54.05;;;49.75;;
21569;SDS011;57598;50.888;4.746;2023-07-31T11:59:57;53.38;;;48.88;;
21569;SDS011;57598;50.888;4.746;2023-07-31T12:02:24;53.72;;;49.47;;
21569;SDS011;57598;50.888;4.746;2023-07-31T12:04:52;55.17;;;50.63;;
21569;SDS011;57598;50.888;4.746;2023-07-31T12:07:19;57.35;;;51.85;;
21569;SDS011;57598;50.888;4.746;2023-07-31T12:09:53;54.88;;;50.40;;
21569;SDS011;57598;50.888;4.746;2023-07-31T12:12:20;53.03;;;48.90;;
21569;SDS011;57598;50.888;4.746;2023-07-31T12:14:47;55.83;;;50.67;;
21569;SDS011;57598;50.888;4.746;2023-07-31T12:17:18;52.58;;;48.08;;
21569;SDS011;57598;50.888;4.746;2023-07-31T12:19:48;51.80;;;47.80;;
21569;SDS011;57598;50.888;4.746;2023-07-31T12:22:15;53.00;;;48.75;;
21569;SDS011;57598;50.888;4.746;2023-07-31T12:24:43;50.75;;;46.65;;
21569;SDS011;57598;50.888;4.746;2023-07-31T12:27:11;51.83;;;47.05;;
21569;SDS011;57598;50.888;4.746;2023-07-31T12:29:38;50.03;;;46.22;;
21569;SDS011;57598;50.888;4.746;2023-07-31T12:32:19;50.08;;;46.47;;
21569;SDS011;57598;50.888;4.746;2023-07-31T12:34:46;51.97;;;48.08;;
21569;SDS011;57598;50.888;4.746;2023-07-31T12:37:14;54.05;;;49.65;;
21569;SDS011;57598;50.888;4.746;2023-07-31T12:39:41;53.53;;;49.13;;
21569;SDS011;57598;50.888;4.746;2023-07-31T12:42:08;52.03;;;47.88;;
21569;SDS011;57598;50.888;4.746;2023-07-31T12:44:35;52.22;;;48.47;;
21569;SDS011;57598;50.888;4.746;2023-07-31T12:47:03;48.83;;;45.35;;
21569;SDS011;57598;50.888;4.746;2023-07-31T12:49:31;52.28;;;48.13;;
21569;SDS011;57598;50.888;4.746;2023-07-31T12:51:59;52.47;;;48.83;;
21569;SDS011;57598;50.888;4.746;2023-07-31T12:54:26;51.33;;;47.45;;
21569;SDS011;57598;50.888;4.746;2023-07-31T12:56:53;49.80;;;46.22;;
21569;SDS011;57598;50.888;4.746;2023-07-31T12:59:20;51.42;;;47.55;;
21569;SDS011;57598;50.888;4.746;2023-07-31T13:01:48;49.88;;;46.28;;
21569;SDS011;57598;50.888;4.746;2023-07-31T13:04:15;51.08;;;47.40;;
21569;SDS011;57598;50.888;4.746;2023-07-31T13:06:43;48.80;;;45.20;;
21569;SDS011;57598;50.888;4.746;2023-07-31T13:09:11;49.75;;;45.47;;
21569;SDS011;57598;50.888;4.746;2023-07-31T13:11:38;48.58;;;44.70;;
21569;SDS011;57598;50.888;4.746;2023-07-31T13:14:05;50.28;;;45.40;;
21569;SDS011;57598;50.888;4.746;2023-07-31T13:16:32;49.58;;;45.85;;
21569;SDS011;57598;50.888;4.746;2023-07-31T13:18:59;49.25;;;45.22;;
21569;SDS011;57598;50.888;4.746;2023-07-31T13:21:27;47.30;;;43.80;;
21569;SDS011;57598;50.888;4.746;2023-07-31T13:23:55;52.08;;;47.15;;
21569;SDS011;57598;50.888;4.746;2023-07-31T13:26:24;50.10;;;46.30;;
21569;SDS011;57598;50.888;4.746;2023-07-31T13:28:51;46.20;;;42.70;;
21569;SDS011;57598;50.888;4.746;2023-07-31T13:31:18;47.63;;;44.03;;
21569;SDS011;57598;50.888;4.746;2023-07-31T13:33:46;47.33;;;43.83;;
21569;SDS011;57598;50.888;4.746;2023-07-31T13:36:13;46.70;;;43.20;;
21569;SDS011;57598;50.888;4.746;2023-07-31T13:38:40;44.97;;;41.58;;
21569;SDS011;57598;50.888;4.746;2023-07-31T13:41:09;46.97;;;42.92;;
21569;SDS011;57598;50.888;4.746;2023-07-31T13:43:36;47.65;;;43.67;;
21569;SDS011;57598;50.888;4.746;2023-07-31T13:46:03;48.40;;;44.90;;
21569;SDS011;57598;50.888;4.746;2023-07-31T13:48:34;126.65;;;118.30;;
21569;SDS011;57598;50.888;4.746;2023-07-31T13:51:01;109.35;;;101.15;;
21569;SDS011;57598;50.888;4.746;2023-07-31T13:53:28;107.68;;;99.30;;
21569;SDS011;57598;50.888;4.746;2023-07-31T13:55:55;101.93;;;93.82;;
21569;SDS011;57598;50.888;4.746;2023-07-31T13:58:24;79.80;;;72.90;;
21569;SDS011;57598;50.888;4.746;2023-07-31T14:00:51;68.38;;;61.95;;
21569;SDS011;57598;50.888;4.746;2023-07-31T14:03:19;66.22;;;60.13;;
21569;SDS011;57598;50.888;4.746;2023-07-31T14:05:46;67.50;;;61.60;;
21569;SDS011;57598;50.888;4.746;2023-07-31T14:08:13;72.72;;;66.57;;
21569;SDS011;57598;50.888;4.746;2023-07-31T14:10:40;72.88;;;65.90;;
21569;SDS011;57598;50.888;4.746;2023-07-31T14:13:07;64.88;;;57.80;;
21569;SDS011;57598;50.888;4.746;2023-07-31T14:15:36;55.95;;;50.75;;
21569;SDS011;57598;50.888;4.746;2023-07-31T14:18:03;60.65;;;54.97;;
21569;SDS011;57598;50.888;4.746;2023-07-31T14:20:31;71.35;;;64.95;;
21569;SDS011;57598;50.888;4.746;2023-07-31T14:22:58;64.50;;;58.75;;
21569;SDS011;57598;50.888;4.746;2023-07-31T14:25:25;60.90;;;55.03;;
21569;SDS011;57598;50.888;4.746;2023-07-31T14:27:52;63.80;;;57.80;;
21569;SDS011;57598;50.888;4.746;2023-07-31T14:30:20;71.80;;;65.50;;
21569;SDS011;57598;50.888;4.746;2023-07-31T14:32:48;88.35;;;81.25;;
21569;SDS011;57598;50.888;4.746;2023-07-31T14:35:16;91.72;;;84.32;;
21569;SDS011;57598;50.888;4.746;2023-07-31T14:37:44;86.50;;;79.47;;
21569;SDS011;57598;50.888;4.746;2023-07-31T14:40:12;84.30;;;77.45;;
21569;SDS011;57598;50.888;4.746;2023-07-31T14:42:39;87.90;;;80.80;;
21569;SDS011;57598;50.888;4.746;2023-07-31T14:45:07;89.63;;;82.55;;
21569;SDS011;57598;50.888;4.746;2023-07-31T14:47:35;95.00;;;87.93;;
21569;SDS011;57598;50.888;4.746;2023-07-31T14:50:04;78.75;;;72.50;;
21569;SDS011;57598;50.888;4.746;2023-07-31T14:52:31;79.20;;;73.00;;
21569;SDS011;57598;50.888;4.746;2023-07-31T14:54:59;79.80;;;73.50;;
21569;SDS011;57598;50.888;4.746;2023-07-31T14:57:26;80.20;;;73.38;;
21569;SDS011;57598;50.888;4.746;2023-07-31T14:59:53;77.53;;;71.53;;
21569;SDS011;57598;50.888;4.746;2023-07-31T15:02:20;73.53;;;67.72;;
21569;SDS011;57598;50.888;4.746;2023-07-31T15:04:48;76.63;;;70.82;;
21569;SDS011;57598;50.888;4.746;2023-07-31T15:07:16;88.55;;;81.85;;
21569;SDS011;57598;50.888;4.746;2023-07-31T15:09:43;81.38;;;75.07;;
21569;SDS011;57598;50.888;4.746;2023-07-31T15:12:11;88.70;;;81.60;;
21569;SDS011;57598;50.888;4.746;2023-07-31T15:14:38;79.50;;;73.03;;
21569;SDS011;57598;50.888;4.746;2023-07-31T15:17:05;105.45;;;97.75;;
21569;SDS011;57598;50.888;4.746;2023-07-31T15:19:32;105.68;;;97.93;;
21569;SDS011;57598;50.888;4.746;2023-07-31T15:22:01;105.85;;;97.95;;
21569;SDS011;57598;50.888;4.746;2023-07-31T15:24:30;103.22;;;95.57;;
21569;SDS011;57598;50.888;4.746;2023-07-31T15:26:57;82.07;;;75.47;;
21569;SDS011;57598;50.888;4.746;2023-07-31T15:29:27;86.60;;;79.40;;
21569;SDS011;57598;50.888;4.746;2023-07-31T15:31:54;94.85;;;87.47;;
21569;SDS011;57598;50.888;4.746;2023-07-31T15:34:21;102.88;;;95.18;;
21569;SDS011;57598;50.888;4.746;2023-07-31T15:36:49;91.85;;;84.65;;
21569;SDS011;57598;50.888;4.746;2023-07-31T15:39:16;87.00;;;80.50;;
21569;SDS011;57598;50.888;4.746;2023-07-31T15:41:45;85.65;;;79.13;;
21569;SDS011;57598;50.888;4.746;2023-07-31T15:44:12;83.78;;;77.50;;
21569;SDS011;57598;50.888;4.746;2023-07-31T15:46:40;69.10;;;63.40;;
21569;SDS011;57598;50.888;4.746;2023-07-31T15:49:07;61.83;;;56.53;;
21569;SDS011;57598;50.888;4.746;2023-07-31T15:51:34;63.13;;;57.72;;
21569;SDS011;57598;50.888;4.746;2023-07-31T15:54:01;83.20;;;76.50;;
21569;SDS011;57598;50.888;4.746;2023-07-31T15:56:29;91.40;;;83.97;;
21569;SDS011;57598;50.888;4.746;2023-07-31T15:58:57;79.72;;;73.07;;
21569;SDS011;57598;50.888;4.746;2023-07-31T16:01:25;85.75;;;78.38;;
21569;SDS011;57598;50.888;4.746;2023-07-31T16:03:53;92.85;;;85.65;;
21569;SDS011;57598;50.888;4.746;2023-07-31T16:06:20;88.32;;;81.22;;
21569;SDS011;57598;50.888;4.746;2023-07-31T16:08:47;92.28;;;85.18;;
21569;SDS011;57598;50.888;4.746;2023-07-31T16:11:14;97.53;;;90.20;;
21569;SDS011;57598;50.888;4.746;2023-07-31T16:13:42;97.57;;;90.18;;
21569;SDS011;57598;50.888;4.746;2023-07-31T16:16:10;71.00;;;64.80;;
21569;SDS011;57598;50.888;4.746;2023-07-31T16:18:38;64.00;;;58.20;;
21569;SDS011;57598;50.888;4.746;2023-07-31T16:21:05;64.68;;;58.78;;
21569;SDS011;57598;50.888;4.746;2023-07-31T16:23:32;59.53;;;53.58;;
21569;SDS011;57598;50.888;4.746;2023-07-31T16:25:59;56.65;;;51.35;;
21569;SDS011;57598;50.888;4.746;2023-07-31T16:28:27;59.65;;;54.25;;
21569;SDS011;57598;50.888;4.746;2023-07-31T16:30:54;65.80;;;60.00;;
21569;SDS011;57598;50.888;4.746;2023-07-31T16:33:22;62.30;;;56.80;;
21569;SDS011;57598;50.888;4.746;2023-07-31T16:35:50;69.55;;;63.55;;
21569;SDS011;57598;50.888;4.746;2023-07-31T16:38:17;78.72;;;72.32;;
21569;SDS011;57598;50.888;4.746;2023-07-31T16:40:44;78.97;;;72.68;;
21569;SDS011;57598;50.888;4.746;2023-07-31T16:43:12;75.88;;;69.80;;
21569;SDS011;57598;50.888;4.746;2023-07-31T16:45:39;84.93;;;78.25;;
21569;SDS011;57598;50.888;4.746;2023-07-31T16:48:07;79.82;;;73.22;;
21569;SDS011;57598;50.888;4.746;2023-07-31T16:50:35;79.35;;;72.55;;
21569;SDS011;57598;50.888;4.746;2023-07-31T16:53:02;80.45;;;73.85;;
21569;SDS011;57598;50.888;4.746;2023-07-31T16:55:30;81.97;;;75.50;;
21569;SDS011;57598;50.888;4.746;2023-07-31T16:57:59;86.43;;;79.53;;
21569;SDS011;57598;50.888;4.746;2023-07-31T17:00:27;82.20;;;75.70;;
21569;SDS011;57598;50.888;4.746;2023-07-31T17:02:54;77.05;;;70.75;;
21569;SDS011;57598;50.888;4.746;2023-07-31T17:05:21;68.05;;;62.35;;
21569;SDS011;57598;50.888;4.746;2023-07-31T17:07:50;64.35;;;58.95;;
21569;SDS011;57598;50.888;4.746;2023-07-31T17:10:17;60.38;;;55.20;;
21569;SDS011;57598;50.888;4.746;2023-07-31T17:12:45;60.20;;;55.00;;
21569;SDS011;57598;50.888;4.746;2023-07-31T17:15:12;60.95;;;55.65;;
21569;SDS011;57598;50.888;4.746;2023-07-31T17:17:39;61.88;;;56.55;;
21569;SDS011;57598;50.888;4.746;2023-07-31T17:20:07;60.08;;;54.85;;
21569;SDS011;57598;50.888;4.746;2023-07-31T17:22:34;60.35;;;55.15;;
21569;SDS011;57598;50.888;4.746;2023-07-31T17:25:03;61.15;;;55.60;;
21569;SDS011;57598;50.888;4.746;2023-07-31T17:27:31;58.70;;;53.70;;
21569;SDS011;57598;50.888;4.746;2023-07-31T17:29:58;59.17;;;52.85;;
21569;SDS011;57598;50.888;4.746;2023-07-31T17:32:25;57.72;;;52.83;;
21569;SDS011;57598;50.888;4.746;2023-07-31T17:34:52;55.72;;;50.72;;
21569;SDS011;57598;50.888;4.746;2023-07-31T17:37:20;62.58;;;57.17;;
21569;SDS011;57598;50.888;4.746;2023-07-31T17:39:47;85.45;;;78.65;;
21569;SDS011;57598;50.888;4.746;2023-07-31T17:42:15;69.70;;;63.33;;
21569;SDS011;57598;50.888;4.746;2023-07-31T17:44:43;65.45;;;59.40;;
21569;SDS011;57598;50.888;4.746;2023-07-31T17:47:10;64.57;;;58.78;;
21569;SDS011;57598;50.888;4.746;2023-07-31T17:49:37;67.97;;;62.08;;
21569;SDS011;57598;50.888;4.746;2023-07-31T17:52:05;64.57;;;58.58;;
21569;SDS011;57598;50.888;4.746;2023-07-31T17:54:32;61.72;;;56.22;;
21569;SDS011;57598;50.888;4.746;2023-07-31T17:57:00;63.45;;;57.65;;
21569;SDS011;57598;50.888;4.746;2023-07-31T17:59:28;62.17;;;56.67;;
21569;SDS011;57598;50.888;4.746;2023-07-31T18:01:56;58.63;;;53.22;;
21569;SDS011;57598;50.888;4.746;2023-07-31T18:04:23;60.47;;;55.08;;
21569;SDS011;57598;50.888;4.746;2023-07-31T18:06:51;56.15;;;50.70;;
21569;SDS011;57598;50.888;4.746;2023-07-31T18:09:19;54.10;;;49.00;;
21569;SDS011;57598;50.888;4.746;2023-07-31T18:11:46;48.50;;;43.60;;
21569;SDS011;57598;50.888;4.746;2023-07-31T18:14:13;47.47;;;42.78;;
21569;SDS011;57598;50.888;4.746;2023-07-31T18:16:42;47.30;;;42.65;;
21569;SDS011;57598;50.888;4.746;2023-07-31T18:19:09;49.90;;;44.95;;
21569;SDS011;57598;50.888;4.746;2023-07-31T18:21:36;48.75;;;44.15;;
21569;SDS011;57598;50.888;4.746;2023-07-31T18:24:04;56.08;;;50.53;;
21569;SDS011;57598;50.888;4.746;2023-07-31T18:26:31;51.58;;;46.58;;
21569;SDS011;57598;50.888;4.746;2023-07-31T18:29:00;53.47;;;48.30;;
21569;SDS011;57598;50.888;4.746;2023-07-31T18:31:27;55.95;;;50.85;;
21569;SDS011;57598;50.888;4.746;2023-07-31T18:33:56;57.67;;;52.47;;
21569;SDS011;57598;50.888;4.746;2023-07-31T18:36:23;60.72;;;55.13;;
21569;SDS011;57598;50.888;4.746;2023-07-31T18:38:50;69.80;;;63.70;;
21569;SDS011;57598;50.888;4.746;2023-07-31T18:41:18;72.78;;;66.55;;
21569;SDS011;57598;50.888;4.746;2023-07-31T18:43:45;74.78;;;68.28;;
21569;SDS011;57598;50.888;4.746;2023-07-31T18:46:12;76.20;;;69.80;;